createdAt,value
2018-11-07T00:00:43.134Z,69.67
2018-11-07T00:03:12.361Z,69.24
2018-11-07T00:05:41.001Z,68.97
2018-11-07T00:08:10.130Z,69.45
2018-11-07T00:10:39.229Z,70.10
2018-11-07T00:13:07.891Z,69.64
2018-11-07T00:15:36.531Z,69.04
2018-11-07T00:18:05.276Z,68.89
2018-11-07T00:20:34.317Z,68.76
2018-11-07T00:23:02.866Z,69.42
2018-11-07T00:25:31.920Z,69.44
2018-11-07T00:28:01.340Z,70.02
2018-11-07T00:30:29.906Z,69.70
2018-11-07T00:32:58.445Z,69.72
2018-11-07T00:35:27.640Z,70.16
2018-11-07T00:37:56.682Z,70.90
2018-11-07T00:40:25.274Z,70.83
2018-11-07T00:42:54.956Z,70.87
2018-11-07T00:45:23.504Z,70.47
2018-11-07T00:47:52.087Z,70.17
2018-11-07T00:50:21.870Z,70.31
2018-11-07T00:52:51.541Z,69.92
2018-11-07T00:55:20.092Z,69.99
2018-11-07T00:57:48.705Z,69.50
2018-11-07T01:00:19.360Z,70.29
2018-11-07T01:02:50.781Z,70.07
2018-11-07T01:05:19.412Z,69.76
2018-11-07T01:07:48.457Z,69.60
2018-11-07T01:10:17.847Z,69.41
2018-11-07T01:12:46.416Z,69.47
2018-11-07T01:15:15.167Z,69.70
2018-11-07T01:17:43.764Z,69.99
2018-11-07T01:20:13.805Z,69.24
2018-11-07T01:22:42.408Z,69.87
2018-11-07T01:25:10.949Z,70.13
2018-11-07T01:27:40.000Z,69.91
2018-11-07T01:30:10.399Z,70.32
2018-11-07T01:32:38.941Z,70.20
2018-11-07T01:35:08.281Z,70.75
2018-11-07T01:37:36.835Z,70.53
2018-11-07T01:40:08.448Z,70.58
2018-11-07T01:42:37.045Z,70.32
2018-11-07T01:45:06.722Z,70.40
2018-11-07T01:47:35.805Z,70.63
2018-11-07T01:50:04.516Z,70.32
2018-11-07T01:52:33.085Z,70.31
2018-11-07T01:55:01.670Z,70.30
2018-11-07T01:57:31.085Z,70.72
2018-11-07T02:00:00.785Z,70.49
2018-11-07T02:02:29.996Z,70.64
2018-11-07T02:04:58.744Z,70.49
2018-11-07T02:07:27.342Z,71.01
2018-11-07T02:09:56.493Z,70.50
2018-11-07T02:12:25.737Z,70.24
2018-11-07T02:14:54.965Z,69.73
2018-11-07T02:17:23.572Z,69.97
2018-11-07T02:19:52.177Z,70.04
2018-11-07T02:22:21.196Z,69.75
2018-11-07T02:24:50.529Z,69.95
2018-11-07T02:27:19.068Z,70.38
2018-11-07T02:29:47.705Z,69.91
2018-11-07T02:32:16.846Z,70.00
2018-11-07T02:34:45.403Z,69.85
2018-11-07T02:37:14.848Z,69.94
2018-11-07T02:39:44.033Z,69.87
2018-11-07T02:42:13.270Z,70.74
2018-11-07T02:44:42.546Z,70.80
2018-11-07T02:47:11.133Z,70.70
2018-11-07T02:49:40.420Z,70.72
2018-11-07T02:52:09.000Z,70.25
2018-11-07T02:54:37.568Z,70.26
2018-11-07T02:57:06.165Z,70.20
2018-11-07T02:59:34.711Z,70.24
2018-11-07T03:02:03.334Z,70.76
2018-11-07T03:04:32.573Z,70.26
2018-11-07T03:07:01.117Z,70.34
2018-11-07T03:09:30.756Z,69.88
2018-11-07T03:11:59.474Z,70.12
2018-11-07T03:14:28.082Z,69.89
2018-11-07T03:16:56.638Z,69.41
2018-11-07T03:19:25.175Z,69.34
2018-11-07T03:21:53.834Z,69.34
2018-11-07T03:24:22.428Z,69.28
2018-11-07T03:26:51.645Z,69.39
2018-11-07T03:29:20.188Z,70.07
2018-11-07T03:31:48.754Z,69.69
2018-11-07T03:34:17.936Z,70.31
2018-11-07T03:36:46.491Z,70.43
2018-11-07T03:39:15.012Z,69.67
2018-11-07T03:41:44.301Z,69.63
2018-11-07T03:44:12.842Z,70.32
2018-11-07T03:46:41.435Z,70.03
2018-11-07T03:49:09.949Z,70.12
2018-11-07T03:51:42.768Z,70.35
2018-11-07T03:54:11.338Z,71.10
2018-11-07T03:56:41.654Z,70.52
2018-11-07T03:59:10.325Z,70.19
2018-11-07T04:01:39.531Z,70.49
2018-11-07T04:04:08.145Z,70.43
2018-11-07T04:06:36.805Z,71.05
2018-11-07T04:09:08.771Z,70.61
2018-11-07T04:11:37.432Z,70.95
2018-11-07T04:14:06.611Z,70.86
2018-11-07T04:16:35.244Z,70.96
2018-11-07T04:19:03.818Z,70.92
2018-11-07T04:21:32.388Z,70.68
2018-11-07T04:24:03.319Z,70.88
2018-11-07T04:26:34.774Z,71.21
2018-11-07T04:29:04.050Z,70.96
2018-11-07T04:31:33.316Z,71.04
2018-11-07T04:34:02.217Z,71.44
2018-11-07T04:36:31.336Z,71.09
2018-11-07T04:39:01.158Z,71.06
2018-11-07T04:41:30.267Z,70.39
2018-11-07T04:43:59.340Z,70.81
2018-11-07T04:46:28.457Z,70.37
2018-11-07T04:48:57.056Z,70.93
2018-11-07T04:51:25.641Z,70.28
2018-11-07T04:53:55.409Z,70.82
2018-11-07T04:56:23.964Z,70.21
2018-11-07T04:58:52.999Z,70.36
2018-11-07T05:01:21.557Z,70.70
2018-11-07T05:03:50.110Z,70.66
2018-11-07T05:06:18.660Z,71.20
2018-11-07T05:08:47.866Z,70.76
2018-11-07T05:11:16.384Z,70.46
2018-11-07T05:13:44.948Z,70.74
2018-11-07T05:16:15.345Z,70.45
2018-11-07T05:18:43.945Z,70.35
2018-11-07T05:21:13.947Z,69.98
2018-11-07T05:23:42.513Z,70.48
2018-11-07T05:26:11.609Z,70.75
2018-11-07T05:28:40.172Z,70.63
2018-11-07T05:31:08.781Z,70.63
2018-11-07T05:33:37.359Z,70.33
2018-11-07T05:36:06.436Z,70.14
2018-11-07T05:38:35.583Z,70.40
2018-11-07T05:41:04.224Z,70.53
2018-11-07T05:43:33.626Z,70.17
2018-11-07T05:46:03.043Z,70.38
2018-11-07T05:48:33.111Z,70.29
2018-11-07T05:51:03.357Z,70.04
2018-11-07T05:53:32.593Z,70.50
2018-11-07T05:56:01.924Z,70.18
2018-11-07T05:58:32.290Z,69.94
2018-11-07T06:01:01.816Z,70.29
2018-11-07T06:03:31.080Z,69.81
2018-11-07T06:06:00.247Z,70.30
2018-11-07T06:08:28.757Z,70.26
2018-11-07T06:10:58.019Z,70.58
2018-11-07T06:13:26.728Z,70.46
2018-11-07T06:15:56.260Z,70.39
2018-11-07T06:18:25.013Z,70.84
2018-11-07T06:20:53.968Z,70.44
2018-11-07T06:23:23.873Z,70.45
2018-11-07T06:25:53.619Z,70.07
2018-11-07T06:28:22.631Z,69.53
2018-11-07T06:30:51.459Z,70.42
2018-11-07T06:33:22.930Z,70.12
2018-11-07T06:35:52.196Z,70.30
2018-11-07T06:38:21.408Z,70.10
2018-11-07T06:40:50.419Z,69.50
2018-11-07T06:43:19.841Z,69.33
2018-11-07T06:45:49.760Z,68.89
2018-11-07T06:48:19.464Z,68.76
2018-11-07T06:50:48.483Z,68.72
2018-11-07T06:53:17.393Z,68.64
2018-11-07T06:55:48.311Z,68.91
2018-11-07T06:58:16.811Z,68.31
2018-11-07T07:00:45.397Z,68.84
2018-11-07T07:03:13.937Z,69.12
2018-11-07T07:05:43.720Z,68.81
2018-11-07T07:08:12.230Z,68.46
2018-11-07T07:10:41.405Z,68.01
2018-11-07T07:13:10.084Z,67.49
2018-11-07T07:15:38.700Z,67.14
2018-11-07T07:18:07.610Z,67.89
2018-11-07T07:20:36.772Z,67.39
2018-11-07T07:23:06.314Z,67.41
2018-11-07T07:25:35.135Z,66.08
2018-11-07T07:28:04.389Z,65.93
2018-11-07T07:30:33.799Z,66.97
2018-11-07T07:33:02.998Z,66.43
2018-11-07T07:35:32.228Z,66.27
2018-11-07T07:38:00.825Z,66.35
2018-11-07T07:40:30.180Z,66.22
2018-11-07T07:42:58.810Z,66.96
2018-11-07T07:45:27.399Z,67.44
2018-11-07T07:47:56.658Z,67.17
2018-11-07T07:50:25.268Z,66.52
2018-11-07T07:52:53.871Z,67.00
2018-11-07T07:55:27.257Z,65.81
2018-11-07T07:57:55.838Z,66.91
2018-11-07T08:00:24.897Z,65.72
2018-11-07T08:02:53.989Z,63.99
2018-11-07T08:05:22.581Z,63.57
2018-11-07T08:07:51.967Z,62.94
2018-11-07T08:10:21.945Z,61.51
2018-11-07T08:12:52.216Z,60.68
2018-11-07T08:15:20.865Z,62.96
2018-11-07T08:17:51.561Z,62.14
2018-11-07T08:20:20.694Z,61.98
2018-11-07T08:22:49.644Z,62.07
2018-11-07T08:25:18.853Z,62.37
2018-11-07T08:27:48.014Z,63.53
2018-11-07T08:30:19.847Z,62.91
2018-11-07T08:32:49.073Z,63.37
2018-11-07T08:35:19.441Z,63.11
2018-11-07T08:37:48.732Z,62.31
2018-11-07T08:40:20.613Z,60.63
2018-11-07T08:42:50.946Z,60.08
2018-11-07T08:45:19.746Z,60.12
2018-11-07T08:47:49.307Z,60.35
2018-11-07T08:50:19.387Z,60.54
2018-11-07T08:52:48.455Z,59.18
2018-11-07T08:55:18.477Z,57.75
2018-11-07T08:57:47.834Z,58.61
2018-11-07T09:00:18.612Z,55.56
2018-11-07T09:02:48.444Z,56.49
2018-11-07T09:05:17.757Z,54.92
2018-11-07T09:07:46.903Z,56.55
2018-11-07T09:10:17.577Z,56.78
2018-11-07T09:12:46.166Z,56.17
2018-11-07T09:15:17.021Z,55.63
2018-11-07T09:17:46.053Z,55.86
2018-11-07T09:20:18.130Z,55.80
2018-11-07T09:22:46.764Z,54.73
2018-11-07T09:25:16.556Z,54.34
2018-11-07T09:27:45.878Z,54.63
2018-11-07T09:30:17.403Z,55.68
2018-11-07T09:32:46.624Z,56.20
2018-11-07T09:35:15.761Z,55.64
2018-11-07T09:37:44.309Z,51.82
2018-11-07T09:40:14.609Z,50.27
2018-11-07T09:42:44.563Z,52.77
2018-11-07T09:45:17.024Z,53.41
2018-11-07T09:47:46.034Z,52.08
2018-11-07T09:50:15.593Z,52.06
2018-11-07T09:52:44.448Z,52.47
2018-11-07T09:55:16.538Z,52.43
2018-11-07T09:57:45.864Z,54.16
2018-11-07T10:00:16.497Z,53.71
2018-11-07T10:02:45.689Z,55.85
2018-11-07T10:05:16.446Z,52.48
2018-11-07T10:07:45.128Z,54.18
2018-11-07T10:10:16.374Z,51.50
2018-11-07T10:12:45.549Z,52.20
2018-11-07T10:15:14.464Z,51.63
2018-11-07T10:17:43.715Z,49.67
2018-11-07T10:20:16.105Z,48.95
2018-11-07T10:22:45.120Z,52.29
2018-11-07T10:25:14.389Z,53.11
2018-11-07T10:27:44.712Z,50.89
2018-11-07T10:30:15.916Z,52.55
2018-11-07T10:32:45.737Z,52.72
2018-11-07T10:35:14.340Z,52.49
2018-11-07T10:37:43.937Z,53.70
2018-11-07T10:40:15.837Z,51.74
2018-11-07T10:42:45.000Z,51.74
2018-11-07T10:45:13.691Z,52.46
2018-11-07T10:47:43.964Z,52.48
2018-11-07T10:50:13.529Z,49.88
2018-11-07T10:52:42.931Z,49.78
2018-11-07T10:55:12.462Z,49.66
2018-11-07T10:57:41.588Z,49.68
2018-11-07T11:00:17.677Z,51.29
2018-11-07T11:02:47.748Z,52.66
2018-11-07T11:05:18.547Z,54.58
2018-11-07T11:07:47.481Z,53.07
2018-11-07T11:10:16.606Z,52.53
2018-11-07T11:12:45.768Z,52.15
2018-11-07T11:15:14.369Z,51.77
2018-11-07T11:17:43.023Z,52.11
2018-11-07T11:20:13.393Z,52.96
2018-11-07T11:22:41.933Z,51.53
2018-11-07T11:25:11.088Z,50.63
2018-11-07T11:27:39.720Z,51.16
2018-11-07T11:30:09.126Z,50.05
2018-11-07T11:32:37.848Z,50.50
2018-11-07T11:35:08.120Z,50.63
2018-11-07T11:37:37.337Z,48.12
2018-11-07T11:40:07.809Z,47.81
2018-11-07T11:42:36.360Z,45.22
2018-11-07T11:45:06.410Z,46.92
2018-11-07T11:47:35.201Z,44.71
2018-11-07T11:50:04.251Z,46.06
2018-11-07T11:52:33.013Z,44.37
2018-11-07T11:55:03.064Z,44.73
2018-11-07T11:57:32.762Z,44.69
2018-11-07T12:00:02.465Z,42.69
2018-11-07T12:02:34.224Z,44.89
2018-11-07T12:05:04.044Z,45.85
2018-11-07T12:07:32.626Z,47.30
2018-11-07T12:10:01.753Z,45.52
2018-11-07T12:12:31.492Z,46.20
2018-11-07T12:15:01.783Z,45.96
2018-11-07T12:17:31.696Z,44.47
2018-11-07T12:20:00.270Z,42.03
2018-11-07T12:22:29.529Z,45.90
2018-11-07T12:24:58.188Z,44.75
2018-11-07T12:27:27.481Z,45.74
2018-11-07T12:29:56.602Z,45.76
2018-11-07T12:32:25.185Z,46.28
2018-11-07T12:34:54.267Z,49.39
2018-11-07T12:37:22.836Z,49.11
2018-11-07T12:39:51.813Z,48.25
2018-11-07T12:42:20.336Z,48.24
2018-11-07T12:44:49.026Z,46.26
2018-11-07T12:47:18.097Z,47.04
2018-11-07T12:49:46.791Z,47.44
2018-11-07T12:52:15.288Z,46.76
2018-11-07T12:54:44.949Z,47.91
2018-11-07T12:57:13.694Z,47.65
2018-11-07T12:59:42.543Z,47.59
2018-11-07T13:02:11.100Z,49.10
2018-11-07T13:04:40.229Z,49.29
2018-11-07T13:07:08.757Z,50.10
2018-11-07T13:09:37.337Z,50.04
2018-11-07T13:12:06.285Z,51.02
2018-11-07T13:14:34.969Z,52.87
2018-11-07T13:17:05.007Z,53.38
2018-11-07T13:19:34.879Z,54.23
2018-11-07T13:22:03.436Z,54.93
2018-11-07T13:24:32.628Z,55.66
2018-11-07T13:27:01.323Z,54.79
2018-11-07T13:29:29.912Z,55.49
2018-11-07T13:31:58.454Z,55.93
2018-11-07T13:34:27.138Z,57.20
2018-11-07T13:36:56.415Z,56.44
2018-11-07T13:39:24.924Z,57.04
2018-11-07T13:41:54.059Z,57.42
2018-11-07T13:44:23.425Z,57.19
2018-11-07T13:46:52.009Z,57.93
2018-11-07T13:49:21.891Z,58.32
2018-11-07T13:51:51.941Z,58.64
2018-11-07T13:54:20.545Z,57.98
2018-11-07T13:56:49.758Z,57.83
2018-11-07T13:59:20.031Z,57.99
2018-11-07T14:01:50.200Z,58.63
2018-11-07T14:04:19.396Z,58.18
2018-11-07T14:06:47.969Z,59.59
2018-11-07T14:09:16.531Z,58.72
2018-11-07T14:11:45.100Z,58.70
2018-11-07T14:14:14.665Z,58.91
2018-11-07T14:16:43.217Z,57.98
2018-11-07T14:19:11.839Z,59.24
2018-11-07T14:21:40.488Z,60.35
2018-11-07T14:24:09.230Z,60.89
2018-11-07T14:26:38.427Z,60.93
2018-11-07T14:29:07.657Z,59.87
2018-11-07T14:31:36.256Z,61.89
2018-11-07T14:34:05.615Z,61.99
2018-11-07T14:36:34.198Z,61.35
2018-11-07T14:39:03.282Z,61.57
2018-11-07T14:41:31.804Z,61.25
2018-11-07T14:44:01.498Z,61.16
2018-11-07T14:46:30.087Z,61.34
2018-11-07T14:48:58.712Z,62.10
2018-11-07T14:51:27.259Z,62.60
2018-11-07T14:53:56.124Z,62.44
2018-11-07T14:56:24.815Z,62.81
2018-11-07T14:58:54.125Z,62.36
2018-11-07T15:01:23.133Z,63.16
2018-11-07T15:03:51.747Z,63.45
2018-11-07T15:06:20.286Z,63.93
2018-11-07T15:08:49.530Z,63.83
2018-11-07T15:11:18.891Z,64.10
2018-11-07T15:13:47.392Z,64.45
2018-11-07T15:16:17.124Z,64.76
2018-11-07T15:18:45.800Z,64.56
2018-11-07T15:21:15.045Z,64.72
2018-11-07T15:23:45.054Z,65.16
2018-11-07T15:26:14.306Z,65.17
2018-11-07T15:28:43.924Z,65.22
2018-11-07T15:31:13.695Z,65.12
2018-11-07T15:33:42.589Z,65.47
2018-11-07T15:36:11.298Z,65.22
2018-11-07T15:38:39.786Z,65.92
2018-11-07T15:41:08.384Z,66.05
2018-11-07T15:43:37.017Z,66.21
2018-11-07T15:46:05.869Z,66.14
2018-11-07T15:48:34.591Z,65.81
2018-11-07T15:51:09.046Z,65.81
2018-11-07T15:53:38.272Z,66.40
2018-11-07T15:56:07.317Z,66.39
2018-11-07T15:58:36.710Z,66.84
2018-11-07T16:01:05.676Z,67.49
2018-11-07T16:03:39.500Z,66.96
2018-11-07T16:06:08.087Z,66.81
2018-11-07T16:08:36.996Z,67.17
2018-11-07T16:11:06.225Z,67.02
2018-11-07T16:13:35.119Z,67.39
2018-11-07T16:16:05.576Z,67.52
2018-11-07T16:18:36.186Z,68.07
2018-11-07T16:21:07.251Z,68.20
2018-11-07T16:23:38.745Z,68.56
2018-11-07T16:26:09.809Z,68.16
2018-11-07T16:28:41.032Z,68.27
2018-11-07T16:31:11.957Z,68.61
2018-11-07T16:33:43.024Z,68.37
2018-11-07T16:36:13.967Z,68.64
2018-11-07T16:38:45.417Z,68.28
2018-11-07T16:41:16.324Z,68.33
2018-11-07T16:43:47.575Z,68.94
2018-11-07T16:46:18.729Z,68.53
2018-11-07T16:48:49.617Z,68.78
2018-11-07T16:51:20.915Z,68.61
2018-11-07T16:53:52.963Z,68.33
2018-11-07T16:56:24.786Z,68.93
2018-11-07T16:58:56.133Z,69.32
2018-11-07T17:01:27.095Z,69.35
2018-11-07T17:03:58.870Z,69.44
2018-11-07T17:06:30.008Z,69.51
2018-11-07T17:09:01.536Z,69.35
2018-11-07T17:11:33.352Z,70.21
2018-11-07T17:14:04.196Z,69.73
2018-11-07T17:16:35.408Z,69.25
2018-11-07T17:19:06.739Z,69.53
2018-11-07T17:21:39.054Z,69.26
2018-11-07T17:24:09.815Z,69.21
2018-11-07T17:26:40.876Z,69.21
2018-11-07T17:29:11.659Z,69.52
2018-11-07T17:31:42.781Z,69.01
2018-11-07T17:34:12.946Z,69.49
2018-11-07T17:36:42.045Z,69.32
2018-11-07T17:39:10.729Z,69.34
2018-11-07T17:41:41.151Z,69.16
2018-11-07T17:44:09.879Z,69.05
2018-11-07T17:46:41.332Z,69.49
2018-11-07T17:49:12.358Z,69.72
2018-11-07T17:51:43.528Z,69.51
2018-11-07T17:54:14.697Z,68.96
2018-11-07T17:56:45.799Z,69.11
2018-11-07T17:59:15.878Z,69.24
2018-11-07T18:01:47.199Z,69.49
2018-11-07T18:04:16.158Z,69.60
2018-11-07T18:06:45.360Z,69.53
2018-11-07T18:09:14.119Z,69.30
2018-11-07T18:11:43.400Z,70.12
2018-11-07T18:14:12.616Z,69.47
2018-11-07T18:16:41.915Z,69.67
2018-11-07T18:19:10.573Z,69.97
2018-11-07T18:21:39.806Z,69.40
2018-11-07T18:24:08.378Z,70.05
2018-11-07T18:26:37.720Z,70.24
2018-11-07T18:29:07.557Z,70.98
2018-11-07T18:31:36.099Z,70.62
2018-11-07T18:34:04.657Z,70.28
2018-11-07T18:36:33.477Z,70.81
2018-11-07T18:39:02.044Z,70.76
2018-11-07T18:41:30.673Z,71.21
2018-11-07T18:43:59.223Z,70.97
2018-11-07T18:46:28.392Z,71.18
2018-11-07T18:48:57.084Z,71.65
2018-11-07T18:51:26.232Z,71.98
2018-11-07T18:53:54.869Z,71.73
2018-11-07T18:56:23.415Z,71.20
2018-11-07T18:58:52.556Z,71.90
2018-11-07T19:01:21.120Z,72.75
2018-11-07T19:03:51.505Z,72.93
2018-11-07T19:06:20.431Z,72.45
2018-11-07T19:08:49.104Z,72.99
2018-11-07T19:11:18.468Z,72.83
2018-11-07T19:13:47.041Z,72.71
2018-11-07T19:16:15.802Z,72.90
2018-11-07T19:18:45.648Z,73.64
2018-11-07T19:21:14.263Z,73.73
2018-11-07T19:23:42.822Z,73.45
2018-11-07T19:26:11.389Z,73.95
2018-11-07T19:28:39.967Z,73.23
2018-11-07T19:31:08.554Z,73.56
2018-11-07T19:33:37.749Z,72.56
2018-11-07T19:36:06.513Z,72.37
2018-11-07T19:38:35.932Z,72.46
2018-11-07T19:41:04.525Z,72.64
2018-11-07T19:43:35.100Z,72.27
2018-11-07T19:46:03.860Z,72.47
2018-11-07T19:48:33.954Z,72.25
2018-11-07T19:51:02.647Z,71.90
2018-11-07T19:53:31.333Z,72.26
2018-11-07T19:56:00.983Z,71.94
2018-11-07T19:58:29.913Z,72.83
2018-11-07T20:00:59.663Z,72.56
2018-11-07T20:03:28.868Z,72.61
2018-11-07T20:05:58.152Z,72.88
2018-11-07T20:08:31.052Z,73.83
2018-11-07T20:11:00.877Z,73.32
2018-11-07T20:13:30.085Z,73.21
2018-11-07T20:15:58.705Z,73.22
2018-11-07T20:18:28.586Z,72.85
2018-11-07T20:20:57.345Z,72.79
2018-11-07T20:23:26.457Z,73.02
2018-11-07T20:25:55.042Z,73.65
2018-11-07T20:28:25.332Z,73.58
2018-11-07T20:30:54.525Z,73.04
2018-11-07T20:33:25.708Z,72.66
2018-11-07T20:35:54.894Z,73.21
2018-11-07T20:38:28.993Z,73.31
2018-11-07T20:40:58.085Z,73.14
2018-11-07T20:43:27.533Z,73.47
2018-11-07T20:45:57.506Z,73.43
2018-11-07T20:48:28.240Z,73.56
2018-11-07T20:50:57.726Z,73.21
2018-11-07T20:53:28.891Z,73.32
2018-11-07T20:55:59.181Z,73.51
2018-11-07T20:58:30.110Z,74.01
2018-11-07T21:00:59.450Z,73.78
2018-11-07T21:03:29.070Z,73.95
2018-11-07T21:05:58.235Z,74.37
2018-11-07T21:08:29.372Z,73.66
2018-11-07T21:11:02.347Z,73.74
2018-11-07T21:13:30.996Z,73.89
2018-11-07T21:16:00.060Z,73.92
2018-11-07T21:18:28.792Z,74.78
2018-11-07T21:20:57.569Z,74.91
2018-11-07T21:23:26.176Z,74.79
2018-11-07T21:25:54.761Z,74.53
2018-11-07T21:28:23.420Z,73.91
2018-11-07T21:30:53.722Z,74.10
2018-11-07T21:33:23.080Z,73.67
2018-11-07T21:35:51.977Z,73.97
2018-11-07T21:38:21.794Z,73.91
2018-11-07T21:40:50.493Z,73.53
2018-11-07T21:43:20.421Z,73.36
2018-11-07T21:45:49.640Z,73.39
2018-11-07T21:48:19.031Z,73.01
2018-11-07T21:50:47.961Z,73.18
2018-11-07T21:53:16.671Z,73.55
2018-11-07T21:55:45.449Z,73.12
2018-11-07T21:58:16.313Z,72.66
2018-11-07T22:00:48.140Z,72.58
2018-11-07T22:03:18.714Z,72.40
2018-11-07T22:05:49.363Z,72.24
2018-11-07T22:08:20.364Z,72.39
2018-11-07T22:10:51.791Z,72.98
2018-11-07T22:13:21.622Z,73.09
2018-11-07T22:15:50.208Z,73.22
2018-11-07T22:18:18.764Z,72.83
2018-11-07T22:20:47.496Z,73.23
2018-11-07T22:23:16.080Z,73.32
2018-11-07T22:25:47.223Z,72.66
2018-11-07T22:28:17.300Z,72.52
2018-11-07T22:30:48.242Z,72.72
2018-11-07T22:33:18.913Z,72.65
2018-11-07T22:35:48.094Z,72.66
2018-11-07T22:38:16.874Z,72.31
2018-11-07T22:40:45.946Z,72.70
2018-11-07T22:43:15.404Z,73.41
2018-11-07T22:45:44.121Z,73.27
2018-11-07T22:48:15.253Z,73.43
2018-11-07T22:50:43.893Z,72.84
2018-11-07T22:53:12.580Z,73.28
2018-11-07T22:55:42.225Z,73.39
2018-11-07T22:58:12.593Z,73.48
2018-11-07T23:00:46.446Z,73.36
2018-11-07T23:03:15.663Z,73.76
2018-11-07T23:05:44.863Z,73.90
2018-11-07T23:08:13.422Z,74.68
2018-11-07T23:10:43.414Z,74.87
2018-11-07T23:13:12.481Z,74.90
2018-11-07T23:15:48.770Z,74.70
2018-11-07T23:18:19.540Z,75.47
2018-11-07T23:20:48.745Z,75.39
2018-11-07T23:23:18.000Z,74.96
2018-11-07T23:25:47.298Z,75.22
2018-11-07T23:28:17.757Z,75.71
2018-11-07T23:30:47.528Z,75.17
2018-11-07T23:33:16.594Z,75.16
2018-11-07T23:35:46.776Z,75.06
2018-11-07T23:38:15.832Z,75.68
2018-11-07T23:40:46.329Z,75.13
2018-11-07T23:43:16.140Z,75.13
2018-11-07T23:45:45.232Z,75.03
2018-11-07T23:48:14.664Z,76.07
2018-11-07T23:50:43.250Z,75.49
2018-11-07T23:53:14.136Z,75.63
2018-11-07T23:55:43.851Z,75.14
2018-11-07T23:58:12.850Z,75.85
